Time;durP1;ratioP1;P1;durP2;ratioP2;P2;SDS_P1;SDS_P2;PMS_P1;PMS_P2;Temp;Humidity;BMP_temperature;BMP_pressure;BME280_temperature;BME280_humidity;BME280_pressure;Samples;Min_cycle;Max_cycle;Signal;HPM_P1;HPM_P2
2022/05/31 00:02:03;;;;;;;5.27;4.23;;;11.90;1.00;;;;;;5047051;28;20499;-54
2022/05/31 00:04:29;;;;;;;5.77;4.80;;;11.90;1.00;;;;;;5050393;28;20200;-56
2022/05/31 00:06:55;;;;;;;4.83;4.43;;;;;;;;;;5055216;28;20453;-54
2022/05/31 00:09:21;;;;;;;5.67;5.10;;;11.70;1.00;;;;;;5071984;28;20434;-56
2022/05/31 00:11:47;;;;;;;5.40;5.00;;;11.70;1.00;;;;;;5050493;28;20999;-56
2022/05/31 00:14:14;;;;;;;5.70;5.10;;;11.70;1.00;;;;;;5052345;28;20633;-54
2022/05/31 00:16:40;;;;;;;6.20;5.27;;;11.60;1.00;;;;;;5049622;28;20318;-54
2022/05/31 00:19:06;;;;;;;5.03;4.57;;;11.60;1.00;;;;;;5046733;28;20525;-56
2022/05/31 00:21:45;;;;;;;6.00;4.90;;;11.50;1.00;;;;;;5053230;28;20184;-55
2022/05/31 00:24:14;;;;;;;5.70;5.20;;;11.50;1.00;;;;;;5048094;28;20785;-53
2022/05/31 00:26:41;;;;;;;5.63;5.10;;;11.50;1.00;;;;;;5051733;28;20968;-56
2022/05/31 00:29:08;;;;;;;5.60;5.10;;;11.50;1.00;;;;;;5055952;28;20445;-54
2022/05/31 00:31:36;;;;;;;5.53;5.10;;;11.50;1.00;;;;;;5054765;28;20528;-57
2022/05/31 00:34:02;;;;;;;7.03;5.20;;;11.50;1.00;;;;;;5050083;28;20462;-56
2022/05/31 00:36:28;;;;;;;5.20;4.70;;;11.50;1.00;;;;;;5049753;28;20442;-53
2022/05/31 00:38:55;;;;;;;5.60;5.07;;;11.50;1.00;;;;;;5050465;28;20515;-54
2022/05/31 00:41:23;;;;;;;5.77;5.27;;;11.50;1.00;;;;;;5048416;28;20442;-54
2022/05/31 00:44:10;;;;;;;5.33;4.83;;;11.30;1.00;;;;;;5048800;28;20446;-55
2022/05/31 00:46:55;;;;;;;4.70;4.30;;;11.30;1.00;;;;;;5050773;28;20531;-55
2022/05/31 00:49:35;;;;;;;5.13;4.63;;;11.30;1.00;;;;;;5051924;28;20986;-54
2022/05/31 00:52:13;;;;;;;5.13;4.73;;;11.30;1.00;;;;;;5055185;28;20536;-56
2022/05/31 00:54:52;;;;;;;5.30;4.90;;;11.20;1.00;;;;;;5056572;28;20512;-52
2022/05/31 00:57:18;;;;;;;5.73;5.23;;;11.30;1.00;;;;;;5053095;28;21217;-56
2022/05/31 00:59:56;;;;;;;5.23;4.77;;;11.20;1.00;;;;;;5046911;28;20447;-54
2022/05/31 01:02:23;;;;;;;5.00;4.60;;;11.20;1.00;;;;;;5051368;28;20525;-54
2022/05/31 01:04:53;;;;;;;5.53;4.87;;;11.20;1.00;;;;;;5051073;28;20504;-54
2022/05/31 01:07:18;;;;;;;5.03;4.63;;;11.20;1.00;;;;;;5070778;28;20507;-53
2022/05/31 01:09:45;;;;;;;5.07;4.67;;;11.20;1.00;;;;;;5048542;28;20462;-56
2022/05/31 01:12:13;;;;;;;4.87;4.37;;;11.10;1.00;;;;;;5049919;28;20243;-55
2022/05/31 01:14:40;;;;;;;6.40;5.00;;;11.00;1.00;;;;;;5056199;28;20458;-54
2022/05/31 01:17:18;;;;;;;5.17;4.77;;;11.00;1.00;;;;;;5048613;28;20454;-53
2022/05/31 01:19:56;;;;;;;5.00;4.60;;;11.00;1.00;;;;;;5045661;28;20562;-54
2022/05/31 01:22:42;;;;;;;4.57;4.03;;;11.00;1.00;;;;;;5049549;28;20443;-53
2022/05/31 01:25:17;;;;;;;6.03;4.70;;;11.00;1.00;;;;;;5049769;28;20966;-55
2022/05/31 01:28:32;;;;;;;4.87;4.47;;;10.90;1.00;;;;;;5048738;28;20500;-56
2022/05/31 01:31:12;;;;;;;5.33;4.63;;;10.80;1.00;;;;;;5038212;28;20454;-56
2022/05/31 01:34:00;;;;;;;5.50;4.67;;;10.80;1.00;;;;;;5049804;28;20493;-54
2022/05/31 01:36:38;;;;;;;4.83;4.43;;;10.70;1.00;;;;;;5056518;28;20450;-54
2022/05/31 01:39:07;;;;;;;5.03;4.63;;;10.70;1.00;;;;;;5056222;28;20454;-55
2022/05/31 01:41:41;;;;;;;6.57;4.73;;;10.70;1.00;;;;;;5050683;28;21048;-53
2022/05/31 01:44:10;;;;;;;5.13;4.63;;;10.70;1.00;;;;;;5053945;28;20442;-54
2022/05/31 01:46:36;;;;;;;5.17;4.70;;;10.60;1.00;;;;;;5049019;28;20524;-54
2022/05/31 01:49:07;;;;;;;5.83;5.33;;;10.50;1.00;;;;;;5048163;28;20943;-57
2022/05/31 01:51:37;;;;;;;5.03;4.63;;;10.60;1.00;;;;;;5048088;28;20568;-56
2022/05/31 01:54:03;;;;;;;4.83;4.43;;;10.50;1.00;;;;;;5048721;28;20541;-57
2022/05/31 01:56:30;;;;;;;5.30;4.90;;;10.40;1.00;;;;;;5049635;28;20439;-52
2022/05/31 01:58:58;;;;;;;5.03;4.63;;;10.30;1.00;;;;;;5047086;28;20952;-56
2022/05/31 02:01:25;;;;;;;7.80;6.63;;;10.30;1.00;;;;;;5049109;28;20448;-56
2022/05/31 02:03:51;;;;;;;6.47;5.77;;;10.20;1.00;;;;;;5048188;28;20505;-57
2022/05/31 02:06:31;;;;;;;6.60;6.00;;;10.20;1.00;;;;;;5043434;28;20453;-55
2022/05/31 02:08:57;;;;;;;6.70;6.10;;;10.20;1.00;;;;;;5048953;28;20835;-51
2022/05/31 02:11:23;;;;;;;5.93;5.43;;;10.30;1.00;;;;;;5049491;28;20454;-54
2022/05/31 02:13:49;;;;;;;7.00;6.20;;;10.20;1.00;;;;;;5045924;28;20619;-53
2022/05/31 02:16:15;;;;;;;6.50;5.90;;;;;;;;;;5048491;28;20537;-56
2022/05/31 02:21:25;;;;;;;6.20;5.60;;;10.20;1.00;;;;;;5048334;28;20508;-57
2022/05/31 02:23:51;;;;;;;7.17;6.50;;;10.20;1.00;;;;;;5050248;28;20450;-55
2022/05/31 02:26:17;;;;;;;6.80;6.20;;;10.10;1.00;;;;;;5046478;28;20581;-55
2022/05/31 02:28:42;;;;;;;6.20;5.60;;;10.10;1.00;;;;;;5050636;28;20445;-56
2022/05/31 02:31:08;;;;;;;6.30;5.70;;;10.10;1.00;;;;;;5052057;28;20249;-53
2022/05/31 02:33:34;;;;;;;6.50;5.90;;;10.10;1.00;;;;;;5048224;28;20321;-56
2022/05/31 02:35:59;;;;;;;6.73;6.03;;;7.20;1.00;;;;;;5046009;28;20184;-56
2022/05/31 02:38:25;;;;;;;6.50;5.63;;;10.10;1.00;;;;;;5055115;28;20457;-54
2022/05/31 02:40:50;;;;;;;6.50;5.90;;;10.20;1.00;;;;;;5044069;28;20278;-55
2022/05/31 02:43:16;;;;;;;5.93;5.43;;;10.20;1.00;;;;;;5046812;28;20541;-55
2022/05/31 02:45:41;;;;;;;8.33;6.70;;;10.30;1.00;;;;;;5043966;28;20199;-55
2022/05/31 02:48:07;;;;;;;7.70;7.00;;;10.30;1.00;;;;;;5047399;28;20195;-56
2022/05/31 02:50:33;;;;;;;6.57;5.97;;;10.40;1.00;;;;;;5051103;28;20188;-56
2022/05/31 02:52:58;;;;;;;7.30;6.60;;;10.50;1.00;;;;;;5050394;28;20851;-56
2022/05/31 02:55:24;;;;;;;8.87;6.93;;;10.60;1.00;;;;;;5060713;28;20528;-55
2022/05/31 02:57:50;;;;;;;7.80;7.00;;;10.60;1.00;;;;;;5052562;28;20184;-57
2022/05/31 03:00:16;;;;;;;6.43;5.83;;;10.60;1.00;;;;;;5049545;28;20180;-52
2022/05/31 03:02:41;;;;;;;7.03;6.33;;;10.70;1.00;;;;;;5049769;28;20550;-56
2022/05/31 03:05:07;;;;;;;7.43;6.73;;;10.70;1.00;;;;;;5048516;28;20473;-55
2022/05/31 03:07:33;;;;;;;7.50;6.80;;;10.70;1.00;;;;;;5051633;28;20220;-56
2022/05/31 03:09:58;;;;;;;6.90;6.30;;;10.80;1.00;;;;;;5050988;28;20450;-56
2022/05/31 03:12:27;;;;;;;7.80;6.93;;;10.80;1.00;;;;;;5048291;28;20233;-53
2022/05/31 03:14:55;;;;;;;8.27;7.47;;;10.80;1.00;;;;;;5051590;28;20195;-55
2022/05/31 03:17:30;;;;;;;7.00;6.33;;;10.80;1.00;;;;;;5049609;28;20508;-54
2022/05/31 03:20:21;;;;;;;7.10;6.40;;;10.80;1.00;;;;;;5071905;28;20433;-55
2022/05/31 03:22:53;;;;;;;8.67;7.67;;;10.90;1.00;;;;;;5062551;28;20449;-54
2022/05/31 03:25:24;;;;;;;6.80;6.20;;;10.90;1.00;;;;;;5054704;28;20499;-53
2022/05/31 03:27:52;;;;;;;6.77;6.17;;;10.90;1.00;;;;;;5062258;28;20820;-57
2022/05/31 03:30:18;;;;;;;5.27;4.77;;;10.90;1.00;;;;;;5052912;28;20438;-55
2022/05/31 03:32:46;;;;;;;5.97;5.37;;;10.90;1.00;;;;;;5057456;28;20942;-54
2022/05/31 03:35:12;;;;;;;5.27;4.77;;;;;;;;;;5048343;28;20188;-55
2022/05/31 03:37:38;;;;;;;6.30;5.67;;;10.90;1.00;;;;;;5051160;28;20446;-55
2022/05/31 03:40:05;;;;;;;7.13;6.07;;;11.00;1.00;;;;;;5049921;28;20501;-56
2022/05/31 03:42:30;;;;;;;5.90;5.13;;;11.00;1.00;;;;;;5050920;28;20447;-55
2022/05/31 03:44:56;;;;;;;6.43;5.73;;;;;;;;;;5050685;28;20458;-54
2022/05/31 03:47:22;;;;;;;6.10;5.50;;;11.20;1.00;;;;;;5049178;28;20232;-53
2022/05/31 03:49:47;;;;;;;5.60;5.10;;;11.20;1.00;;;;;;5051638;28;20451;-54
2022/05/31 03:52:13;;;;;;;6.90;6.30;;;11.40;1.00;;;;;;5049230;28;20203;-57
2022/05/31 03:54:39;;;;;;;8.37;6.10;;;11.30;1.00;;;;;;5048264;28;20713;-55
2022/05/31 03:57:16;;;;;;;7.17;6.50;;;11.30;1.00;;;;;;5048826;28;20524;-55
2022/05/31 03:59:41;;;;;;;6.80;6.13;;;11.20;1.00;;;;;;5050198;28;20191;-54
2022/05/31 04:02:07;;;;;;;7.40;6.70;;;11.20;1.00;;;;;;5048823;28;20461;-53
2022/05/31 04:04:33;;;;;;;6.50;5.90;;;11.20;1.00;;;;;;5047381;28;20196;-55
2022/05/31 04:06:59;;;;;;;6.97;6.37;;;11.10;1.00;;;;;;5049624;28;20227;-54
2022/05/31 04:09:24;;;;;;;6.33;5.73;;;11.20;1.00;;;;;;5050870;28;20279;-54
2022/05/31 04:11:50;;;;;;;6.47;5.70;;;11.20;1.00;;;;;;5053904;28;21007;-55
2022/05/31 04:14:17;;;;;;;5.90;5.40;;;11.10;1.00;;;;;;5066000;28;20219;-53
2022/05/31 04:16:42;;;;;;;7.90;5.10;;;11.20;1.00;;;;;;5050153;28;20184;-56
2022/05/31 04:19:07;;;;;;;6.00;5.40;;;11.20;1.00;;;;;;5050553;28;20959;-56
2022/05/31 04:21:33;;;;;;;5.80;5.37;;;11.30;1.00;;;;;;5050153;28;20191;-56
2022/05/31 04:23:59;;;;;;;5.70;5.20;;;11.20;1.00;;;;;;5061905;28;20272;-55
2022/05/31 04:26:31;;;;;;;5.43;4.90;;;11.20;1.00;;;;;;5056854;28;20245;-54
2022/05/31 04:28:57;;;;;;;5.70;4.80;;;11.30;1.00;;;;;;5051387;28;20243;-54
2022/05/31 04:31:23;;;;;;;7.67;5.03;;;11.30;1.00;;;;;;5054096;28;20533;-54
2022/05/31 04:33:48;;;;;;;5.30;4.80;;;11.50;1.00;;;;;;5050667;28;20580;-53
2022/05/31 04:36:17;;;;;;;7.00;5.30;;;11.60;1.00;;;;;;5050769;28;20271;-53
2022/05/31 04:38:44;;;;;;;4.73;4.30;;;11.60;1.00;;;;;;5050126;28;20649;-55
2022/05/31 04:41:22;;;;;;;4.90;4.50;;;11.70;1.00;;;;;;5053988;28;20482;-56
2022/05/31 04:43:48;;;;;;;6.40;5.80;;;11.80;1.00;;;;;;5051812;28;20445;-59
2022/05/31 04:46:19;;;;;;;5.70;5.23;;;11.80;1.00;;;;;;5049212;28;21083;-57
2022/05/31 04:48:45;;;;;;;5.10;4.60;;;;;;;;;;5051599;28;20224;-55
2022/05/31 04:51:11;;;;;;;5.07;4.67;;;12.00;1.00;;;;;;5047751;28;20454;-55
2022/05/31 04:53:38;;;;;;;5.50;5.10;;;12.00;1.00;;;;;;5047926;28;20630;-54
2022/05/31 04:56:09;;;;;;;5.33;4.83;;;12.10;1.00;;;;;;5050040;28;20500;-54
2022/05/31 04:58:34;;;;;;;5.30;4.80;;;12.00;1.00;;;;;;5048988;28;20456;-57
2022/05/31 05:01:09;;;;;;;4.77;4.37;;;12.20;1.00;;;;;;5051013;28;20529;-55
2022/05/31 05:03:35;;;;;;;5.83;4.90;;;12.20;1.00;;;;;;5045988;28;20538;-54
2022/05/31 05:06:06;;;;;;;7.73;5.20;;;12.20;1.00;;;;;;5050062;28;20446;-54
2022/05/31 05:08:32;;;;;;;7.10;5.70;;;12.30;1.00;;;;;;5047027;28;21409;-55
2022/05/31 05:11:07;;;;;;;4.70;4.30;;;12.30;1.00;;;;;;5057382;28;20781;-56
2022/05/31 05:13:32;;;;;;;9.83;4.83;;;12.60;1.00;;;;;;5046601;28;20473;-56
2022/05/31 05:15:59;;;;;;;5.90;5.40;;;12.70;1.00;;;;;;5048909;28;20791;-54
2022/05/31 05:18:27;;;;;;;5.43;5.03;;;12.70;1.00;;;;;;5046074;28;20212;-55
2022/05/31 05:20:52;;;;;;;5.70;5.20;;;12.80;1.00;;;;;;5048593;28;20739;-55
2022/05/31 05:23:19;;;;;;;6.37;5.77;;;15.30;1.00;;;;;;5047610;28;20442;-55
2022/05/31 05:25:59;;;;;;;5.60;5.10;;;13.10;1.00;;;;;;5047175;28;20230;-55
2022/05/31 05:31:30;;;;;;;5.40;4.90;;;13.30;1.00;;;;;;5047951;28;20538;-55
2022/05/31 05:33:58;;;;;;;4.27;3.87;;;13.40;1.00;;;;;;5049267;28;20469;-56
2022/05/31 05:36:24;;;;;;;5.40;4.40;;;13.40;1.00;;;;;;5049552;28;20537;-56
2022/05/31 05:38:50;;;;;;;4.00;3.70;;;13.40;1.00;;;;;;5048744;28;20466;-56
2022/05/31 05:41:16;;;;;;;5.20;4.23;;;13.30;1.00;;;;;;5047050;28;20457;-56
2022/05/31 05:43:42;;;;;;;4.83;3.87;;;13.20;1.00;;;;;;5049422;28;20470;-54
2022/05/31 05:46:12;;;;;;;4.30;3.90;;;13.10;1.00;;;;;;5048580;28;20557;-57
2022/05/31 05:48:38;;;;;;;3.93;3.30;;;13.10;1.00;;;;;;5050204;28;20867;-55
2022/05/31 05:51:32;;;;;;;4.27;3.60;;;13.10;1.00;;;;;;5049179;28;20994;-55
2022/05/31 05:53:58;;;;;;;4.10;3.80;;;13.10;1.00;;;;;;5047175;28;20510;-55
2022/05/31 05:56:25;;;;;;;6.63;4.83;;;13.00;1.00;;;;;;5049095;28;20551;-55
2022/05/31 05:58:51;;;;;;;8.40;4.47;;;13.10;1.00;;;;;;5047075;28;20451;-55
2022/05/31 06:01:31;;;;;;;7.33;4.00;;;13.20;1.00;;;;;;5048370;28;20454;-56
2022/05/31 06:03:57;;;;;;;5.63;3.57;;;13.30;1.00;;;;;;5044256;28;20191;-55
2022/05/31 06:06:24;;;;;;;5.73;4.80;;;13.30;1.00;;;;;;5049214;28;20788;-54
2022/05/31 06:08:59;;;;;;;6.43;4.50;;;13.50;1.00;;;;;;5046998;28;20279;-55
2022/05/31 06:11:40;;;;;;;4.50;4.10;;;13.70;1.00;;;;;;5047681;28;20437;-55
2022/05/31 06:14:35;;;;;;;6.00;4.50;;;13.80;1.00;;;;;;5049345;28;20450;-56
2022/05/31 06:17:06;;;;;;;4.33;3.93;;;13.90;1.00;;;;;;5047992;28;20450;-57
2022/05/31 06:19:36;;;;;;;4.40;4.00;;;13.90;1.00;;;;;;5058755;28;20852;-56
2022/05/31 06:22:04;;;;;;;5.23;4.83;;;14.10;1.00;;;;;;5048141;28;20537;-55
2022/05/31 06:24:32;;;;;;;4.37;4.00;;;14.10;1.00;;;;;;5052191;28;20478;-55
2022/05/31 06:26:58;;;;;;;5.23;4.73;;;13.90;1.00;;;;;;5050509;28;20489;-55
2022/05/31 06:29:23;;;;;;;4.60;4.20;;;14.00;1.00;;;;;;5055792;28;20464;-56
2022/05/31 06:31:49;;;;;;;5.30;4.80;;;14.20;1.00;;;;;;5051058;28;20214;-55
2022/05/31 06:34:16;;;;;;;4.80;4.40;;;14.30;1.00;;;;;;5050260;28;20184;-56
2022/05/31 06:36:42;;;;;;;5.20;4.70;;;14.40;1.00;;;;;;5051850;28;20527;-57
2022/05/31 06:39:08;;;;;;;5.70;5.20;;;14.40;1.00;;;;;;5048980;28;20541;-55
2022/05/31 06:41:35;;;;;;;10.03;4.50;;;14.40;1.00;;;;;;5049578;28;20420;-55
2022/05/31 06:44:00;;;;;;;4.13;3.73;;;14.40;1.00;;;;;;5059145;28;20453;-55
2022/05/31 06:46:26;;;;;;;4.90;4.40;;;14.40;1.00;;;;;;5046391;28;20489;-56
2022/05/31 06:48:53;;;;;;;6.13;3.80;;;14.50;1.00;;;;;;5052712;28;20223;-55
2022/05/31 06:56:54;;;;;;;5.47;4.97;;;14.90;1.00;;;;;;5058914;28;20650;-56
2022/05/31 06:59:19;;;;;;;4.10;3.30;;;15.20;1.00;;;;;;5049506;28;20457;-56
2022/05/31 07:01:47;;;;;;;4.47;4.07;;;15.30;1.00;;;;;;5048414;28;20944;-56
2022/05/31 07:04:13;;;;;;;4.33;4.00;;;15.50;1.00;;;;;;5045729;28;20187;-56
2022/05/31 07:06:39;;;;;;;4.87;4.40;;;15.60;1.00;;;;;;5051454;28;20440;-55
2022/05/31 07:09:05;;;;;;;6.27;3.70;;;15.90;1.00;;;;;;5051996;28;20446;-56
2022/05/31 07:11:31;;;;;;;3.70;3.37;;;16.30;1.00;;;;;;5051138;28;20255;-55
2022/05/31 07:13:56;;;;;;;3.47;3.17;;;16.30;1.00;;;;;;5071339;28;20720;-56
2022/05/31 07:16:22;;;;;;;3.97;3.50;;;16.40;1.00;;;;;;5073065;28;20505;-57
2022/05/31 07:18:48;;;;;;;11.80;3.90;;;16.60;1.00;;;;;;5073037;28;20202;-55
2022/05/31 07:21:14;;;;;;;4.37;3.67;;;16.60;1.00;;;;;;5072901;28;20249;-56
2022/05/31 07:23:40;;;;;;;4.03;3.73;;;16.60;1.00;;;;;;5073269;28;20195;-55
2022/05/31 07:26:07;;;;;;;5.50;4.10;;;16.90;1.00;;;;;;5053389;28;20215;-56
2022/05/31 07:28:33;;;;;;;6.50;4.90;;;17.20;1.00;;;;;;5053125;28;20434;-56
2022/05/31 07:30:58;;;;;;;4.43;4.00;;;17.40;1.00;;;;;;5062817;28;20420;-57
2022/05/31 07:33:24;;;;;;;7.00;3.90;;;17.50;1.00;;;;;;5051794;28;20214;-55
2022/05/31 07:35:49;;;;;;;4.03;3.57;;;17.60;1.00;;;;;;5053036;28;20236;-56
2022/05/31 07:38:16;;;;;;;4.70;3.60;;;17.60;1.00;;;;;;5052997;28;20268;-56
2022/05/31 07:40:43;;;;;;;6.27;5.63;;;17.60;1.00;;;;;;5051747;28;20211;-55
2022/05/31 07:43:10;;;;;;;4.40;3.97;;;17.80;1.00;;;;;;5052787;28;20435;-56
2022/05/31 07:45:36;;;;;;;5.93;3.77;;;17.70;1.00;;;;;;5052735;28;20510;-54
2022/05/31 07:48:01;;;;;;;3.87;3.57;;;17.80;1.00;;;;;;5052332;28;20444;-56
2022/05/31 07:50:27;;;;;;;4.20;3.10;;;17.90;1.00;;;;;;5052408;28;20330;-56
2022/05/31 07:52:52;;;;;;;3.67;3.37;;;18.00;1.00;;;;;;5052842;28;20200;-57
2022/05/31 07:55:18;;;;;;;5.07;3.30;;;17.90;1.00;;;;;;5052638;28;20203;-55
2022/05/31 08:00:28;;;;;;;2.90;2.70;;;18.40;1.00;;;;;;5052716;28;20186;-57
2022/05/31 08:02:53;;;;;;;3.13;2.83;;;18.50;1.00;;;;;;5052485;28;20792;-54
2022/05/31 08:05:19;;;;;;;4.00;2.53;;;18.70;1.00;;;;;;5053430;28;20544;-56
2022/05/31 08:07:44;;;;;;;2.30;2.20;;;18.80;1.00;;;;;;5052362;28;20246;-56
2022/05/31 08:10:10;;;;;;;2.40;2.20;;;18.80;1.00;;;;;;5052407;28;20234;-55
2022/05/31 08:12:36;;;;;;;3.30;2.77;;;19.00;1.00;;;;;;5052110;28;20204;-56
2022/05/31 08:15:04;;;;;;;6.63;2.77;;;19.20;1.00;;;;;;5052411;28;20405;-55
2022/05/31 08:17:29;;;;;;;3.67;2.33;;;19.10;1.00;;;;;;5052310;28;20207;-56
2022/05/31 08:19:56;;;;;;;6.87;2.47;;;19.20;1.00;;;;;;5052180;28;20471;-56
2022/05/31 08:22:21;;;;;;;3.23;2.17;;;19.40;1.00;;;;;;5069938;28;20190;-55
2022/05/31 08:24:47;;;;;;;2.73;2.07;;;19.60;1.00;;;;;;5072089;28;20449;-56
2022/05/31 08:27:13;;;;;;;2.50;2.30;;;19.70;1.00;;;;;;5068147;28;20462;-57
2022/05/31 08:29:40;;;;;;;3.20;2.60;;;19.90;1.00;;;;;;5051895;28;20196;-56
2022/05/31 08:32:06;;;;;;;3.10;2.27;;;19.90;1.00;;;;;;5063943;28;20442;-55
2022/05/31 08:34:32;;;;;;;5.53;2.17;;;19.90;1.00;;;;;;5071696;28;20491;-56
2022/05/31 08:36:57;;;;;;;4.50;2.57;;;20.10;1.00;;;;;;5056322;28;20435;-55
2022/05/31 08:39:23;;;;;;;2.70;2.50;;;20.20;1.00;;;;;;5051697;28;20254;-56
2022/05/31 08:41:55;;;;;;;2.53;2.33;;;20.20;1.00;;;;;;5068905;28;20214;-55
2022/05/31 08:44:36;;;;;;;3.37;2.77;;;20.00;1.00;;;;;;5071355;28;20438;-55
2022/05/31 08:47:18;;;;;;;2.70;2.43;;;20.20;1.00;;;;;;5066473;28;20466;-57
2022/05/31 08:53:10;;;;;;;2.70;2.50;;;20.30;1.00;;;;;;5050429;28;20770;-56
2022/05/31 08:58:39;;;;;;;2.80;2.27;;;20.50;1.00;;;;;;5051366;28;20450;-57
2022/05/31 09:01:07;;;;;;;3.47;2.33;;;20.80;1.00;;;;;;5069626;28;20500;-57
2022/05/31 09:04:15;;;;;;;4.10;2.20;;;20.80;1.00;;;;;;5071249;28;20905;-56
2022/05/31 09:06:54;;;;;;;3.30;2.33;;;20.90;1.00;;;;;;5031544;28;20515;-55
2022/05/31 09:09:26;;;;;;;3.00;2.13;;;21.30;1.00;;;;;;5028772;28;20443;-57
2022/05/31 09:12:09;;;;;;;3.97;2.00;;;21.50;1.00;;;;;;5042702;28;20515;-56
2022/05/31 09:15:09;;;;;;;5.33;2.47;;;21.40;1.00;;;;;;5051147;28;20441;-56
2022/05/31 09:17:53;;;;;;;4.10;2.50;;;21.50;1.00;;;;;;5050884;28;20446;-56
2022/05/31 09:20:35;;;;;;;3.00;2.80;;;21.40;1.00;;;;;;5050776;28;20504;-55
2022/05/31 09:23:01;;;;;;;1.77;1.67;;;21.70;1.00;;;;;;5051048;28;21003;-56
2022/05/31 09:25:36;;;;;;;2.40;2.20;;;21.60;1.00;;;;;;5065085;28;20465;-56
2022/05/31 09:28:11;;;;;;;4.20;2.50;;;21.60;1.00;;;;;;5070624;28;20530;-55
2022/05/31 09:30:41;;;;;;;4.40;2.10;;;21.70;1.00;;;;;;5070662;28;20418;-57
2022/05/31 09:33:19;;;;;;;2.60;2.13;;;21.80;1.00;;;;;;5070590;28;20500;-55
2022/05/31 09:36:17;;;;;;;2.30;1.93;;;22.10;1.00;;;;;;5070514;28;20433;-55
2022/05/31 09:38:59;;;;;;;2.67;1.97;;;22.40;1.00;;;;;;5070329;28;20437;-57
2022/05/31 09:41:45;;;;;;;3.23;2.37;;;21.90;1.00;;;;;;5070320;28;20404;-55
2022/05/31 09:44:23;;;;;;;2.53;1.80;;;21.00;1.00;;;;;;5055167;28;20410;-56
2022/05/31 09:47:00;;;;;;;4.20;2.33;;;21.00;1.00;;;;;;5050121;28;20800;-55
2022/05/31 09:49:40;;;;;;;2.67;1.90;;;21.20;1.00;;;;;;5050479;28;20932;-56
2022/05/31 09:52:30;;;;;;;2.27;1.93;;;21.60;1.00;;;;;;5050374;28;20434;-56
2022/05/31 09:58:17;;;;;;;4.13;1.87;;;22.40;1.00;;;;;;5050015;28;20490;-55
2022/05/31 10:01:05;;;;;;;2.43;2.23;;;22.30;1.00;;;;;;5056425;28;20939;-55
2022/05/31 10:03:37;;;;;;;5.30;2.20;;;22.40;1.00;;;;;;5070160;28;20906;-56
2022/05/31 10:06:13;;;;;;;6.17;2.60;;;22.40;1.00;;;;;;5070162;28;21005;-56
2022/05/31 10:08:39;;;;;;;2.27;1.97;;;22.40;1.00;;;;;;5070474;28;20419;-57
2022/05/31 10:11:29;;;;;;;2.10;1.50;;;22.20;1.00;;;;;;5070261;28;20441;-56
2022/05/31 10:14:15;;;;;;;2.13;1.97;;;21.70;1.00;;;;;;5070250;28;20675;-56
2022/05/31 10:16:42;;;;;;;2.50;1.80;;;21.30;1.00;;;;;;5064266;28;20442;-56
2022/05/31 10:19:22;;;;;;;2.30;1.80;;;21.10;1.00;;;;;;5050000;28;20409;-55
2022/05/31 10:21:48;;;;;;;3.03;1.97;;;21.20;1.00;;;;;;5050233;28;20461;-56
2022/05/31 10:24:22;;;;;;;3.30;2.03;;;20.80;1.00;;;;;;5049730;28;20891;-55
2022/05/31 10:27:08;;;;;;;1.60;1.50;;;20.60;1.00;;;;;;5049787;28;20724;-57
2022/05/31 10:29:52;;;;;;;1.97;1.50;;;20.70;1.00;;;;;;5044991;28;20466;-56
2022/05/31 10:32:46;;;;;;;2.87;2.17;;;20.90;1.00;;;;;;5049703;28;20926;-57
2022/05/31 10:35:19;;;;;;;4.73;2.60;;;21.30;1.00;;;;;;5069735;28;20834;-56
2022/05/31 10:37:59;;;;;;;2.00;1.60;;;21.70;1.00;;;;;;5069721;28;20400;-56
2022/05/31 10:40:33;;;;;;;2.70;1.77;;;21.90;1.00;;;;;;5069359;28;20403;-56
2022/05/31 10:43:20;;;;;;;1.90;1.80;;;21.90;1.00;;;;;;5069594;28;20452;-56
2022/05/31 10:45:46;;;;;;;1.70;1.60;;;;;;;;;;5069625;28;20414;-56
2022/05/31 10:48:12;;;;;;;1.80;1.70;;;22.20;1.00;;;;;;5069848;28;20467;-56
2022/05/31 10:51:07;;;;;;;2.33;2.13;;;22.80;1.00;;;;;;5056363;28;20404;-55
2022/05/31 10:53:49;;;;;;;2.67;1.70;;;22.90;1.00;;;;;;5048143;28;20246;-56
2022/05/31 10:56:21;;;;;;;6.23;1.87;;;23.00;1.00;;;;;;5050040;28;20422;-56
2022/05/31 10:59:03;;;;;;;2.67;1.97;;;23.20;1.00;;;;;;5049691;28;20438;-56
2022/05/31 11:02:29;;;;;;;1.93;1.80;;;23.60;1.00;;;;;;5049712;28;20431;-59
2022/05/31 11:05:09;;;;;;;3.07;1.87;;;23.90;1.00;;;;;;5036953;28;20499;-56
2022/05/31 11:13:45;;;;;;;2.20;2.00;;;23.90;1.00;;;;;;5053195;28;20459;-56
2022/05/31 11:16:32;;;;;;;3.50;1.83;;;24.20;1.00;;;;;;5052950;28;20198;-56
2022/05/31 11:19:18;;;;;;;2.03;1.47;;;24.40;1.00;;;;;;5052974;28;20478;-56
2022/05/31 11:21:54;;;;;;;2.63;2.00;;;24.10;1.00;;;;;;5069548;28;20434;-57
2022/05/31 11:24:32;;;;;;;3.70;2.00;;;24.20;1.00;;;;;;5073285;28;20445;-56
2022/05/31 11:27:33;;;;;;;2.73;1.80;;;24.30;1.00;;;;;;5072834;28;20418;-57
2022/05/31 11:30:25;;;;;;;2.47;1.70;;;24.90;1.00;;;;;;5062810;28;20921;-57
2022/05/31 11:33:18;;;;;;;2.40;2.20;;;24.90;1.00;;;;;;5052639;28;20437;-56
2022/05/31 11:36:05;;;;;;;2.90;2.00;;;25.20;1.00;;;;;;5052193;28;21345;-57
2022/05/31 11:38:46;;;;;;;2.23;1.80;;;25.10;1.00;;;;;;5053120;28;20932;-57
2022/05/31 11:41:39;;;;;;;2.70;1.80;;;23.90;1.00;;;;;;5052899;28;20481;-56
2022/05/31 11:44:52;;;;;;;4.33;2.40;;;24.30;1.00;;;;;;5052727;28;20489;-56
2022/05/31 11:47:39;;;;;;;2.03;1.80;;;24.40;1.00;;;;;;5052864;28;20490;-56
2022/05/31 11:50:26;;;;;;;3.10;1.90;;;24.60;1.00;;;;;;5052528;28;20461;-56
2022/05/31 11:53:08;;;;;;;2.70;1.73;;;24.70;1.00;;;;;;5052372;28;20834;-55
2022/05/31 11:55:50;;;;;;;2.90;1.80;;;24.90;1.00;;;;;;5052697;28;20430;-59
2022/05/31 11:58:33;;;;;;;2.03;1.70;;;24.90;1.00;;;;;;5052250;28;20943;-58
2022/05/31 12:01:00;;;;;;;3.13;2.20;;;25.10;1.00;;;;;;5051441;28;20914;-56
2022/05/31 12:03:47;;;;;;;2.30;2.00;;;25.20;1.00;;;;;;5052253;28;20425;-57
2022/05/31 12:06:35;;;;;;;2.30;1.40;;;25.50;1.00;;;;;;5054920;28;20443;-56
2022/05/31 12:09:14;;;;;;;2.67;2.20;;;25.20;1.00;;;;;;5072301;28;20936;-57
2022/05/31 12:11:45;;;;;;;2.50;1.93;;;25.30;1.00;;;;;;5072195;28;20510;-56
2022/05/31 12:14:12;;;;;;;4.50;2.20;;;25.40;1.00;;;;;;5064114;28;20437;-57
2022/05/31 12:16:39;;;;;;;2.13;1.80;;;25.40;1.00;;;;;;5052070;28;20911;-55
2022/05/31 12:19:31;;;;;;;6.00;2.27;;;25.50;1.00;;;;;;5051863;28;20446;-57
2022/05/31 12:22:18;;;;;;;4.97;2.27;;;25.60;1.00;;;;;;5052201;28;20413;-56
2022/05/31 12:24:53;;;;;;;1.93;1.60;;;25.20;1.00;;;;;;5051897;28;20446;-56
2022/05/31 12:27:26;;;;;;;3.70;1.83;;;25.20;1.00;;;;;;5050403;28;20405;-56
2022/05/31 12:30:00;;;;;;;4.30;1.70;;;25.40;1.00;;;;;;5052233;28;21326;-57
2022/05/31 12:32:40;;;;;;;2.20;1.63;;;25.30;1.00;;;;;;5050526;28;20458;-55
2022/05/31 12:35:10;;;;;;;2.80;2.00;;;25.40;1.00;;;;;;5052270;28;20507;-57
2022/05/31 12:38:01;;;;;;;2.13;1.80;;;25.40;1.00;;;;;;5053129;28;20516;-58
2022/05/31 12:40:32;;;;;;;1.83;1.73;;;25.30;1.00;;;;;;5057483;28;20441;-55
2022/05/31 12:42:59;;;;;;;2.13;1.70;;;24.70;1.00;;;;;;5071832;28;20455;-56
2022/05/31 12:45:33;;;;;;;1.80;1.70;;;24.60;1.00;;;;;;5067195;28;20936;-56
2022/05/31 12:48:10;;;;;;;1.90;1.73;;;25.00;1.00;;;;;;5051086;28;20440;-57
2022/05/31 12:50:51;;;;;;;2.20;2.00;;;25.00;1.00;;;;;;5051363;28;21049;-55
2022/05/31 12:53:23;;;;;;;2.63;1.73;;;25.20;1.00;;;;;;5051297;28;20505;-57
2022/05/31 12:55:53;;;;;;;1.60;1.50;;;25.30;1.00;;;;;;5049373;28;20762;-55
2022/05/31 13:00:59;;;;;;;2.00;1.80;;;24.90;1.00;;;;;;5051202;28;20526;-56
2022/05/31 13:03:34;;;;;;;4.07;1.90;;;24.70;1.00;;;;;;5051350;28;20802;-56
2022/05/31 13:06:10;;;;;;;1.97;1.83;;;24.60;1.00;;;;;;5051140;28;20445;-57
2022/05/31 13:08:56;;;;;;;3.00;2.10;;;24.40;1.00;;;;;;5051178;28;20412;-55
2022/05/31 13:20:28;;;;;;;2.60;2.03;;;24.80;1.00;;;;;;5071251;28;20442;-55
2022/05/31 13:22:59;;;;;;;1.60;1.50;;;24.90;1.00;;;;;;5059474;28;20928;-56
2022/05/31 13:25:51;;;;;;;2.23;1.83;;;24.70;1.00;;;;;;5050716;28;20449;-55
2022/05/31 13:28:23;;;;;;;3.40;1.90;;;24.90;1.00;;;;;;5050928;28;20492;-58
2022/05/31 13:30:49;;;;;;;2.47;1.90;;;23.00;1.00;;;;;;5050710;28;20446;-57
2022/05/31 13:33:19;;;;;;;4.03;1.70;;;25.00;1.00;;;;;;5064021;28;20439;-55
2022/05/31 13:35:54;;;;;;;2.03;1.63;;;24.80;1.00;;;;;;5070419;28;20426;-56
2022/05/31 13:38:26;;;;;;;2.73;1.83;;;24.70;1.00;;;;;;5059156;28;20954;-56
2022/05/31 13:40:55;;;;;;;3.20;1.90;;;24.70;1.00;;;;;;5050586;28;20728;-57
2022/05/31 13:43:24;;;;;;;1.67;1.57;;;24.90;1.00;;;;;;5050525;28;21011;-56
2022/05/31 13:45:57;;;;;;;4.13;2.10;;;24.70;1.00;;;;;;5050400;28;20481;-58
2022/05/31 13:48:26;;;;;;;2.80;2.10;;;25.00;1.00;;;;;;5050512;28;20987;-56
2022/05/31 13:50:56;;;;;;;2.33;1.97;;;25.00;1.00;;;;;;5050290;28;20438;-58
2022/05/31 13:53:23;;;;;;;3.53;1.70;;;25.10;1.00;;;;;;5050330;28;20443;-57
2022/05/31 13:55:58;;;;;;;4.83;1.87;;;25.30;1.00;;;;;;5052728;28;20421;-57
2022/05/31 13:58:30;;;;;;;2.47;1.60;;;25.40;1.00;;;;;;5050298;28;20507;-56
2022/05/31 14:00:56;;;;;;;3.10;1.90;;;25.30;1.00;;;;;;5050298;28;20417;-55
2022/05/31 14:03:31;;;;;;;3.50;1.60;;;25.50;1.00;;;;;;5050327;28;20479;-56
2022/05/31 14:06:07;;;;;;;1.70;1.60;;;25.60;1.00;;;;;;5050455;28;20640;-55